Time;durP1;ratioP1;P1;durP2;ratioP2;P2;SDS_P1;SDS_P2;PMS_P1;PMS_P2;Temp;Humidity;BMP_temperature;BMP_pressure;BME280_temperature;BME280_humidity;BME280_pressure;Samples;Min_cycle;Max_cycle;Signal;HPM_P1;HPM_P2
2021/07/07 00:02:03;;;;;;;4.60;1.17;;;;;;;15.69;100.00;98889.97;5066126;28;20056;-80
2021/07/07 00:04:30;;;;;;;2.15;1.10;;;;;;;15.66;100.00;98901.41;5063671;28;20052;-80
2021/07/07 00:06:57;;;;;;;4.75;1.45;;;;;;;15.79;99.71;98894.97;5063748;28;20479;-80
2021/07/07 00:09:23;;;;;;;2.00;1.27;;;;;;;15.81;99.89;98893.69;5059252;28;20102;-80
2021/07/07 00:11:50;;;;;;;5.70;1.30;;;;;;;15.62;100.00;98880.97;5071145;28;20572;-80
2021/07/07 00:14:17;;;;;;;1.80;1.10;;;;;;;15.76;100.00;98890.72;5056618;28;20041;-80
2021/07/07 00:16:45;;;;;;;3.60;1.25;;;;;;;15.81;100.00;98899.16;5062393;28;20045;-80
2021/07/07 00:19:12;;;;;;;4.53;1.13;;;;;;;15.72;100.00;98908.72;5061612;28;20052;-80
2021/07/07 00:21:39;;;;;;;2.90;1.15;;;;;;;15.65;100.00;98892.31;5058745;28;20103;-79
2021/07/07 00:24:06;;;;;;;3.03;1.20;;;;;;;15.77;100.00;98908.03;5058218;28;20045;-79
2021/07/07 00:26:32;;;;;;;3.78;1.05;;;;;;;15.63;100.00;98891.72;5054275;28;20098;-80
2021/07/07 00:28:59;;;;;;;3.60;1.17;;;;;;;15.83;100.00;98901.69;5072063;28;20048;-79
2021/07/07 00:31:26;;;;;;;6.53;1.52;;;;;;;15.75;100.00;98895.38;5072033;28;20435;-79
2021/07/07 00:33:54;;;;;;;1.73;1.40;;;;;;;15.61;100.00;98898.47;5056676;28;20045;-79
2021/07/07 00:36:21;;;;;;;1.77;1.48;;;;;;;15.71;100.00;98915.25;5063872;28;20454;-79
2021/07/07 00:38:47;;;;;;;3.35;1.40;;;;;;;15.75;100.00;98917.31;5068745;28;20045;-79
2021/07/07 00:41:14;;;;;;;4.97;1.13;;;;;;;15.75;100.00;98911.84;5060046;28;20056;-79
2021/07/07 00:43:42;;;;;;;7.68;1.80;;;;;;;15.88;100.00;98921.88;5072502;28;20076;-79
2021/07/07 00:46:09;;;;;;;7.75;1.67;;;;;;;15.74;100.00;98910.16;5065853;28;20044;-79
2021/07/07 00:48:36;;;;;;;6.22;1.73;;;;;;;15.78;100.00;98921.53;5066329;28;20048;-80
2021/07/07 00:51:04;;;;;;;2.60;1.30;;;;;;;15.75;100.00;98911.84;5065879;28;20053;-79
2021/07/07 00:53:33;;;;;;;5.25;1.33;;;;;;;15.75;100.00;98906.34;5054544;28;20095;-79
2021/07/07 00:56:00;;;;;;;2.50;1.33;;;;;;;15.77;100.00;98897.91;5058781;28;20098;-78
2021/07/07 00:58:27;;;;;;;2.88;1.30;;;;;;;15.79;100.00;98890.31;5069509;28;20128;-79
2021/07/07 01:00:54;;;;;;;3.42;1.10;;;;;;;15.83;100.00;98880.59;5064839;28;20049;-79
2021/07/07 01:03:21;;;;;;;2.65;1.10;;;;;;;15.65;99.36;98883.25;5070540;28;20465;-79
2021/07/07 01:05:48;;;;;;;2.05;1.00;;;;;;;15.77;98.83;98881.47;5063810;28;20098;-79
2021/07/07 01:08:16;;;;;;;1.15;0.70;;;;;;;15.54;98.02;98893.06;5059228;28;20106;-79
2021/07/07 01:10:43;;;;;;;0.90;0.80;;;;;;;15.46;98.29;98877.75;5053263;28;20140;-80
2021/07/07 01:13:12;;;;;;;2.30;0.95;;;;;;;15.42;99.53;98884.72;5053117;28;20111;-79
2021/07/07 01:15:41;;;;;;;3.90;1.40;;;;;;;15.57;100.00;98884.41;5053483;28;20118;-80
2021/07/07 01:18:08;;;;;;;2.00;1.20;;;;;;;15.58;100.00;98899.75;5064120;28;20048;-80
2021/07/07 01:20:35;;;;;;;3.40;1.23;;;;;;;15.56;100.00;98899.97;5051580;28;20485;-79
2021/07/07 01:23:04;;;;;;;1.90;0.93;;;;;;;15.60;100.00;98899.53;5056971;28;20082;-79
2021/07/07 01:25:31;;;;;;;1.13;0.88;;;;;;;15.76;99.56;98901.69;5070373;28;20121;-79
2021/07/07 01:28:01;;;;;;;1.77;1.00;;;;;;;15.60;100.00;98889.41;5061501;28;20057;-79
2021/07/07 01:30:28;;;;;;;;;;;;;;;15.67;100.00;98897.56;5071289;28;20058;-79
2021/07/07 01:32:55;;;;;;;6.80;1.40;;;;;;;15.61;100.00;98901.22;5070012;28;19920;-80
2021/07/07 01:35:23;;;;;;;2.53;1.10;;;;;;;15.69;100.00;98887.25;5067803;28;20048;-79
2021/07/07 01:37:51;;;;;;;1.67;1.00;;;;;;;15.79;100.00;98876.59;5053805;28;20044;-79
2021/07/07 01:40:23;;;;;;;6.68;1.33;;;;;;;15.69;100.00;98870.81;5056635;28;20057;-80
2021/07/07 01:42:50;;;;;;;2.45;1.27;;;;;;;15.49;100.00;98881.91;5058125;28;20044;-79
2021/07/07 01:45:18;;;;;;;1.48;1.10;;;;;;;15.48;100.00;98899.44;5062405;28;20044;-79
2021/07/07 01:47:45;;;;;;;1.27;0.98;;;;;;;15.45;100.00;98891.66;5071906;28;20416;-79
2021/07/07 01:50:14;;;;;;;4.50;1.30;;;;;;;15.49;100.00;98874.56;5058638;28;20093;-79
2021/07/07 01:52:41;;;;;;;3.10;1.10;;;;;;;15.63;100.00;98871.69;5071538;28;20036;-79
2021/07/07 01:55:11;;;;;;;1.42;1.00;;;;;;;15.57;100.00;98871.53;5055472;28;20045;-79
2021/07/07 01:57:46;;;;;;;1.05;0.93;;;;;;;15.42;100.00;98887.47;5068485;28;20041;-80
2021/07/07 02:00:15;;;;;;;2.60;1.08;;;;;;;15.44;100.00;98911.91;5072198;28;20052;-79
2021/07/07 02:02:45;;;;;;;0.95;0.80;;;;;;;15.35;100.00;98909.41;5054822;28;20053;-80
2021/07/07 02:05:12;;;;;;;1.38;1.17;;;;;;;15.49;100.00;98923.88;5052532;28;20114;-79
2021/07/07 02:07:41;;;;;;;2.30;0.88;;;;;;;15.54;100.00;98917.72;5063002;28;20048;-79
2021/07/07 02:10:11;;;;;;;2.60;0.90;;;;;;;15.46;100.00;98924.31;5072239;28;20059;-79
2021/07/07 02:12:39;;;;;;;1.27;1.17;;;;;;;15.44;100.00;98931.06;5056870;28;20056;-79
2021/07/07 02:15:09;;;;;;;4.32;1.05;;;;;;;15.65;100.00;98924.38;5051604;28;20053;-80
2021/07/07 02:17:36;;;;;;;3.65;1.25;;;;;;;15.64;100.00;98923.53;5055404;28;20052;-79
2021/07/07 02:20:07;;;;;;;1.10;1.00;;;;;;;15.57;100.00;98914.53;5066029;28;20059;-79
2021/07/07 02:22:33;;;;;;;3.08;1.10;;;;;;;15.61;100.00;98909.44;5060354;28;20060;-79
2021/07/07 02:25:00;;;;;;;5.13;1.10;;;;;;;15.60;100.00;98926.91;5067341;28;20448;-79
2021/07/07 02:27:27;;;;;;;5.45;1.13;;;;;;;15.58;100.00;98921.66;5062651;28;20045;-79
2021/07/07 02:29:55;;;;;;;7.90;1.33;;;;;;;15.54;100.00;98899.38;5052039;28;20511;-79
2021/07/07 02:32:22;;;;;;;4.75;1.52;;;;;;;15.52;100.00;98906.13;5053937;28;20048;-79
2021/07/07 02:34:49;;;;;;;4.80;1.63;;;;;;;15.55;100.00;98916.63;5051565;28;20045;-80
2021/07/07 02:37:15;;;;;;;3.03;1.20;;;;;;;15.52;100.00;98915.19;5051352;28;20071;-79
2021/07/07 02:39:42;;;;;;;4.30;1.48;;;;;;;15.52;100.00;98912.47;5051265;28;20113;-80
2021/07/07 02:42:09;;;;;;;5.75;2.85;;;;;;;15.51;100.00;98905.28;5051068;28;20095;-80
2021/07/07 02:44:36;;;;;;;5.97;1.27;;;;;;;15.66;100.00;98921.41;5050869;28;20056;-80
2021/07/07 02:47:04;;;;;;;4.35;1.45;;;;;;;15.61;100.00;98903.94;5051362;28;20037;-80
2021/07/07 02:49:31;;;;;;;7.22;1.35;;;;;;;15.49;100.00;98898.34;5050961;28;20048;-80
2021/07/07 02:51:57;;;;;;;14.55;1.60;;;;;;;15.41;100.00;98883.03;5050944;28;20053;-80
2021/07/07 02:54:24;;;;;;;1.52;1.25;;;;;;;15.47;100.00;98886.78;5050853;28;20057;-80
2021/07/07 02:56:51;;;;;;;6.65;2.38;;;;;;;15.48;100.00;98893.97;5051153;28;20512;-81
2021/07/07 02:59:17;;;;;;;1.80;1.25;;;;;;;15.37;100.00;98906.44;5055342;28;20053;-80
2021/07/07 03:01:44;;;;;;;1.85;1.00;;;;;;;15.41;100.00;98921.38;5055423;28;20071;-79
2021/07/07 03:04:12;;;;;;;1.95;1.42;;;;;;;15.53;100.00;98911.38;5055098;28;20044;-80
2021/07/07 03:06:41;;;;;;;4.93;1.42;;;;;;;15.45;100.00;98919.06;5054971;28;20048;-80
2021/07/07 03:09:10;;;;;;;3.17;1.20;;;;;;;15.37;100.00;98915.53;5059528;28;20557;-79
2021/07/07 03:11:37;;;;;;;2.50;1.40;;;;;;;15.51;100.00;98937.34;5068708;28;20477;-80
2021/07/07 03:14:04;;;;;;;3.60;1.55;;;;;;;15.48;100.00;98954.22;5067364;28;20053;-80
2021/07/07 03:16:31;;;;;;;1.38;1.27;;;;;;;15.57;100.00;98944.66;5065950;28;20056;-80
2021/07/07 03:18:59;;;;;;;5.45;1.70;;;;;;;15.66;100.00;98937.84;5055890;28;20041;-79
2021/07/07 03:21:31;;;;;;;2.78;1.65;;;;;;;15.51;100.00;98940.09;5068893;28;20049;-80
2021/07/07 03:23:57;;;;;;;3.92;1.45;;;;;;;15.46;100.00;98956.31;5060982;28;20045;-79
2021/07/07 03:26:24;;;;;;;6.07;1.42;;;;;;;15.43;100.00;98948.56;5054930;28;20501;-79
2021/07/07 03:28:51;;;;;;;3.50;1.75;;;;;;;15.62;100.00;98930.31;5063816;28;20041;-79
2021/07/07 03:31:18;;;;;;;4.03;2.53;;;;;;;15.63;100.00;98919.13;5056059;28;20451;-79
2021/07/07 03:33:44;;;;;;;3.08;1.45;;;;;;;15.56;100.00;98921.88;5062677;28;20056;-79
2021/07/07 03:36:11;;;;;;;3.67;1.45;;;;;;;15.53;100.00;98916.84;5075093;28;20052;-79
2021/07/07 03:38:39;;;;;;;8.68;4.70;;;;;;;15.54;100.00;98907.59;5067692;28;20441;-79
2021/07/07 03:41:06;;;;;;;3.15;1.80;;;;;;;15.50;100.00;98927.44;5072533;28;20044;-80
2021/07/07 03:43:33;;;;;;;4.75;1.52;;;;;;;15.45;100.00;98930.03;5069611;28;20048;-79
2021/07/07 03:45:59;;;;;;;1.30;1.20;;;;;;;15.36;100.00;98932.19;5071137;28;20049;-79
2021/07/07 03:48:26;;;;;;;2.85;1.30;;;;;;;15.34;100.00;98937.03;5070662;28;20114;-79
2021/07/07 03:50:53;;;;;;;2.20;1.40;;;;;;;15.30;100.00;98942.13;5063031;28;20102;-80
2021/07/07 03:53:19;;;;;;;3.22;1.63;;;;;;;15.36;100.00;98976.84;5059036;28;20118;-79
2021/07/07 03:55:48;;;;;;;1.80;1.50;;;;;;;15.44;100.00;98978.47;5070837;28;20111;-79
2021/07/07 03:58:15;;;;;;;8.25;2.88;;;;;;;15.35;100.00;98971.56;5067199;28;20055;-79
2021/07/07 04:00:42;;;;;;;6.65;1.83;;;;;;;15.31;100.00;98953.91;5059088;28;20479;-79
2021/07/07 04:03:09;;;;;;;6.10;1.77;;;;;;;15.51;100.00;98957.34;5069012;28;20122;-79
2021/07/07 04:05:36;;;;;;;4.90;2.33;;;;;;;15.60;100.00;98946.09;5069456;28;20460;-78
2021/07/07 04:08:02;;;;;;;2.70;1.70;;;;;;;15.57;100.00;98928.22;5067027;28;20098;-79
2021/07/07 04:10:29;;;;;;;1.52;1.42;;;;;;;15.47;100.00;98933.38;5059767;28;20052;-79
2021/07/07 04:12:57;;;;;;;9.98;1.60;;;;;;;15.40;100.00;98934.25;5072865;28;20055;-79
2021/07/07 04:15:24;;;;;;;1.67;1.55;;;;;;;15.44;100.00;98940.13;5055927;28;20052;-79
2021/07/07 04:17:51;;;;;;;3.50;1.35;;;;;;;15.45;100.00;98951.94;5055100;28;20094;-78
2021/07/07 04:20:20;;;;;;;5.75;1.52;;;;;;;15.45;100.00;98950.03;5068346;28;20056;-80
2021/07/07 04:22:47;;;;;;;6.10;1.53;;;;;;;15.46;100.00;98954.44;5056572;28;20060;-79
2021/07/07 04:25:15;;;;;;;1.52;1.30;;;;;;;15.51;100.00;98960.09;5053099;28;20816;-80
2021/07/07 04:27:42;;;;;;;2.85;1.33;;;;;;;15.53;100.00;98968.09;5054894;28;20045;-80
2021/07/07 04:30:14;;;;;;;2.38;1.33;;;;;;;15.45;100.00;98958.25;5053592;28;20099;-80
2021/07/07 04:32:41;;;;;;;1.45;1.33;;;;;;;15.58;100.00;98969.09;5053714;28;20159;-80
2021/07/07 04:35:09;;;;;;;2.83;1.48;;;;;;;15.67;100.00;98975.16;5053515;28;20072;-80
2021/07/07 04:37:36;;;;;;;3.05;1.05;;;;;;;15.60;100.00;98970.75;5053802;28;20049;-80
2021/07/07 04:40:05;;;;;;;4.28;1.33;;;;;;;15.54;100.00;98958.81;5056799;28;20448;-80
2021/07/07 04:42:32;;;;;;;3.05;1.55;;;;;;;15.49;100.00;98962.22;5052951;28;20041;-80
2021/07/07 04:44:58;;;;;;;1.33;1.20;;;;;;;15.50;100.00;98965.78;5052959;28;20052;-80
2021/07/07 04:47:26;;;;;;;7.00;2.83;;;;;;;15.55;100.00;98969.56;5054919;28;20102;-80
2021/07/07 04:49:53;;;;;;;3.03;1.67;;;;;;;15.51;100.00;98946.38;5063895;28;20045;-80
2021/07/07 04:52:20;;;;;;;3.92;1.17;;;;;;;15.60;100.00;98979.84;5064697;28;20079;-80
2021/07/07 04:54:47;;;;;;;4.13;1.30;;;;;;;15.48;100.00;98987.09;5072635;28;20052;-80
2021/07/07 04:57:14;;;;;;;1.85;1.45;;;;;;;15.50;100.00;98988.53;5070931;28;20053;-80
2021/07/07 04:59:40;;;;;;;2.08;1.45;;;;;;;15.55;100.00;98979.66;5061692;28;20045;-80
2021/07/07 05:02:07;;;;;;;2.10;1.80;;;;;;;15.63;100.00;98989.53;5054746;28;20048;-80
2021/07/07 05:04:35;;;;;;;2.75;1.42;;;;;;;15.61;100.00;99003.44;5061129;28;20500;-80
2021/07/07 05:07:02;;;;;;;3.20;1.55;;;;;;;15.71;100.00;99009.25;5052627;28;20473;-80
2021/07/07 05:09:29;;;;;;;6.78;1.70;;;;;;;15.73;100.00;99009.03;5053068;28;20049;-80
2021/07/07 05:11:55;;;;;;;3.33;1.80;;;;;;;15.77;100.00;99006.69;5052431;28;20079;-80
2021/07/07 05:14:22;;;;;;;4.15;1.60;;;;;;;15.87;100.00;98993.38;5052315;28;20566;-80
2021/07/07 05:16:49;;;;;;;6.68;1.67;;;;;;;15.88;100.00;98993.16;5052185;28;20174;-79
2021/07/07 05:19:16;;;;;;;5.68;2.17;;;;;;;15.86;100.00;99002.66;5053078;28;20094;-79
2021/07/07 05:21:44;;;;;;;2.33;1.45;;;;;;;15.84;100.00;99004.78;5051043;28;20391;-80
2021/07/07 05:24:11;;;;;;;2.80;1.65;;;;;;;15.91;100.00;99003.66;5052367;28;20547;-80
2021/07/07 05:26:38;;;;;;;4.25;1.52;;;;;;;15.89;100.00;99007.69;5053019;28;20053;-79
2021/07/07 05:29:05;;;;;;;3.83;1.77;;;;;;;15.92;100.00;99008.06;5051864;28;20052;-80
2021/07/07 05:31:33;;;;;;;1.85;1.40;;;;;;;15.90;100.00;99017.59;5052564;28;20053;-79
2021/07/07 05:33:59;;;;;;;7.80;1.67;;;;;;;15.78;100.00;99022.94;5052052;28;20500;-79
2021/07/07 05:36:26;;;;;;;3.38;1.77;;;;;;;15.80;100.00;99030.97;5053003;28;20053;-79
2021/07/07 05:38:54;;;;;;;3.42;1.50;;;;;;;15.81;100.00;99029.91;5058273;28;20044;-79
2021/07/07 05:41:21;;;;;;;3.22;1.50;;;;;;;16.02;100.00;99045.97;5070910;28;20448;-80
2021/07/07 05:43:52;;;;;;;3.05;1.48;;;;;;;16.08;100.00;99041.50;5060856;28;20050;-80
2021/07/07 05:46:19;;;;;;;22.48;2.40;;;;;;;16.12;100.00;99041.88;5052827;28;20385;-80
2021/07/07 05:48:46;;;;;;;5.15;1.75;;;;;;;16.18;100.00;99038.22;5059954;28;20495;-80
2021/07/07 05:51:13;;;;;;;8.32;1.30;;;;;;;16.34;100.00;99025.84;5053499;28;20045;-80
2021/07/07 05:53:39;;;;;;;5.63;1.58;;;;;;;16.39;100.00;99015.84;5052566;28;20459;-79
2021/07/07 05:56:08;;;;;;;5.75;2.42;;;;;;;16.53;100.00;99037.69;5053398;28;20049;-79
2021/07/07 05:58:34;;;;;;;5.15;1.23;;;;;;;16.56;100.00;99051.81;5052568;28;20057;-79
2021/07/07 06:01:01;;;;;;;4.47;1.60;;;;;;;16.52;100.00;99036.03;5057861;28;20053;-78
2021/07/07 06:03:28;;;;;;;4.60;1.20;;;;;;;16.52;100.00;99039.59;5057989;28;20397;-80
2021/07/07 06:05:55;;;;;;;3.10;1.20;;;;;;;16.40;100.00;99047.72;5061600;28;20392;-78
2021/07/07 06:08:22;;;;;;;2.20;1.48;;;;;;;16.35;100.00;99055.81;5063126;28;20052;-78
2021/07/07 06:10:48;;;;;;;1.20;1.10;;;;;;;16.51;100.00;99043.41;5065441;28;20037;-79
2021/07/07 06:13:17;;;;;;;1.85;1.55;;;;;;;16.53;100.00;99040.41;5062474;28;20040;-79
2021/07/07 06:15:44;;;;;;;1.58;1.17;;;;;;;16.59;100.00;99037.63;5062179;28;20041;-78
2021/07/07 06:18:10;;;;;;;7.22;1.70;;;;;;;16.50;100.00;99022.53;5072184;28;20480;-78
2021/07/07 06:20:37;;;;;;;1.63;1.40;;;;;;;16.59;100.00;99028.53;5063206;28;20110;-78
2021/07/07 06:23:04;;;;;;;1.58;1.30;;;;;;;16.64;100.00;99031.44;5056560;28;20102;-79
2021/07/07 06:25:31;;;;;;;4.28;1.27;;;;;;;16.75;100.00;99035.34;5061216;28;20248;-78
2021/07/07 06:27:58;;;;;;;1.88;1.40;;;;;;;16.77;100.00;99022.22;5071236;28;20076;-78
2021/07/07 06:30:27;;;;;;;1.50;1.27;;;;;;;16.77;100.00;99013.97;5068547;28;20122;-78
2021/07/07 06:32:56;;;;;;;1.73;1.40;;;;;;;16.78;100.00;99021.16;5069506;28;20045;-78
2021/07/07 06:35:24;;;;;;;1.83;1.10;;;;;;;16.84;100.00;99027.66;5053694;28;20649;-78
2021/07/07 06:37:52;;;;;;;2.35;1.27;;;;;;;16.74;99.71;99039.16;5067369;28;20080;-79
2021/07/07 06:40:19;;;;;;;3.30;1.20;;;;;;;16.77;98.77;99047.78;5064071;28;20052;-79
2021/07/07 06:42:51;;;;;;;1.02;0.93;;;;;;;16.69;99.70;99055.47;5071705;28;20048;-78
2021/07/07 06:45:19;;;;;;;;;;;;;;;16.68;99.87;99073.84;5067462;28;20040;-78
2021/07/07 06:47:47;;;;;;;1.75;1.02;;;;;;;16.81;99.31;99064.63;5073384;28;20014;-79
2021/07/07 06:50:16;;;;;;;1.15;1.05;;;;;;;16.78;100.00;99052.19;5053049;28;20480;-78
2021/07/07 06:52:43;;;;;;;1.38;1.27;;;;;;;16.90;99.40;99063.28;5051653;28;20049;-78
2021/07/07 06:55:11;;;;;;;3.50;1.00;;;;;;;16.88;99.10;99062.69;5068399;28;20086;-78
2021/07/07 06:57:39;;;;;;;2.15;1.40;;;;;;;16.80;100.00;99069.28;5071576;28;20057;-78
2021/07/07 07:00:08;;;;;;;1.88;1.33;;;;;;;16.92;99.73;99071.28;5054791;28;20049;-78
2021/07/07 07:02:35;;;;;;;2.30;0.93;;;;;;;16.83;100.00;99076.22;5068018;28;20048;-78
2021/07/07 07:05:04;;;;;;;4.45;1.05;;;;;;;16.84;100.00;99091.63;5071337;28;20049;-78
2021/07/07 07:07:31;;;;;;;4.07;1.20;;;;;;;16.77;98.46;99088.09;5069047;28;20098;-78
2021/07/07 07:09:59;;;;;;;3.00;1.73;;;;;;;16.75;100.00;99087.50;5071724;28;20110;-78
2021/07/07 07:12:26;;;;;;;1.90;1.70;;;;;;;16.74;100.00;99085.81;5063973;28;20048;-78
2021/07/07 07:14:53;;;;;;;2.50;1.52;;;;;;;16.80;100.00;99091.25;5071454;28;20052;-78
2021/07/07 07:17:20;;;;;;;3.67;1.58;;;;;;;16.86;98.69;99103.22;5059081;28;20056;-78
2021/07/07 07:19:47;;;;;;;3.63;1.60;;;;;;;16.86;100.00;99111.47;5069594;28;20044;-78
2021/07/07 07:22:16;;;;;;;3.17;2.10;;;;;;;17.04;98.24;99112.56;5068789;28;20094;-78
2021/07/07 07:24:43;;;;;;;2.75;1.45;;;;;;;16.95;99.07;99115.63;5050841;28;20045;-78
2021/07/07 07:27:09;;;;;;;2.33;1.30;;;;;;;16.92;98.31;99135.28;5051500;28;20072;-78
2021/07/07 07:29:37;;;;;;;6.63;1.92;;;;;;;16.94;97.73;99133.16;5051145;28;20103;-78
2021/07/07 07:32:04;;;;;;;2.85;1.65;;;;;;;16.87;100.00;99134.28;5051015;28;20493;-78
2021/07/07 07:34:31;;;;;;;5.35;1.80;;;;;;;16.93;100.00;99119.66;5050856;28;20048;-78
2021/07/07 07:37:01;;;;;;;6.72;2.00;;;;;;;17.08;99.46;99122.84;5051114;28;20470;-78
2021/07/07 07:39:38;;;;;;;9.85;2.00;;;;;;;17.22;97.03;99118.03;5051096;28;20049;-79
2021/07/07 07:42:05;;;;;;;9.50;1.80;;;;;;;17.34;96.32;99107.13;5051026;28;20084;-78
2021/07/07 07:44:32;;;;;;;6.82;2.63;;;;;;;17.52;98.59;99109.88;5050925;28;20381;-78
2021/07/07 07:46:59;;;;;;;5.57;2.40;;;;;;;17.51;95.86;99112.84;5054905;28;20103;-79
2021/07/07 07:49:26;;;;;;;10.35;2.35;;;;;;;17.75;95.24;99116.53;5054651;28;20480;-79
2021/07/07 07:51:53;;;;;;;4.95;2.25;;;;;;;17.86;94.16;99114.91;5054540;28;20041;-79
2021/07/07 07:54:20;;;;;;;4.85;2.00;;;;;;;17.95;92.55;99113.53;5054161;28;20492;-79
2021/07/07 07:56:48;;;;;;;3.45;2.05;;;;;;;17.98;95.11;99121.31;5054696;28;20045;-78
2021/07/07 07:59:15;;;;;;;11.13;2.00;;;;;;;17.95;92.64;99127.28;5054663;28;20049;-79
2021/07/07 08:01:41;;;;;;;3.83;1.90;;;;;;;17.86;92.82;99123.97;5054212;28;20053;-78
2021/07/07 08:04:08;;;;;;;3.28;1.80;;;;;;;17.87;90.72;99120.16;5054663;28;20462;-78
2021/07/07 08:06:35;;;;;;;4.20;1.65;;;;;;;17.92;91.19;99114.00;5068118;28;20136;-79
2021/07/07 08:09:02;;;;;;;6.45;1.70;;;;;;;18.18;89.26;99120.16;5054589;28;20484;-78
2021/07/07 08:11:29;;;;;;;3.15;1.35;;;;;;;18.24;87.38;99107.38;5070751;28;20048;-79
2021/07/07 08:13:57;;;;;;;2.53;1.50;;;;;;;18.40;91.34;99114.94;5073794;28;20105;-78
2021/07/07 08:16:25;;;;;;;4.88;1.50;;;;;;;18.36;91.43;99116.47;5073675;28;20097;-79
2021/07/07 08:18:52;;;;;;;3.20;1.70;;;;;;;18.51;89.73;99136.13;5061150;28;20053;-79
2021/07/07 08:21:19;;;;;;;2.60;1.50;;;;;;;18.72;90.94;99134.69;5055299;28;20265;-79
2021/07/07 08:23:47;;;;;;;1.70;1.40;;;;;;;18.75;92.41;99128.72;5064500;28;20080;-78
2021/07/07 08:26:14;;;;;;;6.03;1.50;;;;;;;18.74;88.44;99151.84;5057764;28;20044;-79
2021/07/07 08:28:40;;;;;;;1.27;1.17;;;;;;;18.76;88.90;99143.34;5074288;28;20049;-79
2021/07/07 08:31:09;;;;;;;2.33;1.02;;;;;;;18.81;87.49;99156.41;5073232;28;20569;-78
2021/07/07 08:33:36;;;;;;;3.00;1.30;;;;;;;18.49;85.41;99148.47;5073738;28;20048;-79
2021/07/07 08:36:03;;;;;;;2.40;1.58;;;;;;;18.58;88.09;99150.63;5068935;28;20055;-78
2021/07/07 08:38:29;;;;;;;4.45;1.00;;;;;;;18.54;89.00;99163.19;5072241;28;20120;-78
2021/07/07 08:40:56;;;;;;;3.08;0.90;;;;;;;18.44;87.36;99171.19;5073869;28;20048;-78
2021/07/07 08:43:24;;;;;;;3.08;1.25;;;;;;;18.41;86.95;99163.38;5060189;28;20127;-79
2021/07/07 08:45:54;;;;;;;3.30;0.88;;;;;;;18.35;85.37;99170.69;5053977;28;20501;-79
2021/07/07 08:48:22;;;;;;;4.40;1.02;;;;;;;18.20;89.76;99162.03;5064980;28;20056;-79
2021/07/07 08:50:49;;;;;;;2.40;1.02;;;;;;;18.10;87.81;99161.78;5073580;28;20053;-78
2021/07/07 08:53:16;;;;;;;1.75;1.10;;;;;;;18.13;86.77;99159.38;5062422;28;20045;-79
2021/07/07 08:55:46;;;;;;;2.63;1.08;;;;;;;18.25;91.25;99162.19;5070737;28;20531;-79
2021/07/07 08:58:13;;;;;;;2.92;0.93;;;;;;;18.40;88.51;99154.31;5063864;28;20049;-78
2021/07/07 09:00:41;;;;;;;1.98;0.98;;;;;;;18.61;87.16;99154.81;5068993;28;20044;-78
2021/07/07 09:03:10;;;;;;;1.98;1.08;;;;;;;18.48;88.12;99150.38;5064933;28;20049;-79
2021/07/07 09:05:52;;;;;;;1.85;0.80;;;;;;;18.33;85.20;99156.31;5063194;28;20103;-78
2021/07/07 09:08:27;;;;;;;3.25;1.00;;;;;;;18.14;88.04;99161.06;5063589;28;20063;-78
2021/07/07 09:10:54;;;;;;;3.33;1.00;;;;;;;18.09;87.83;99155.41;5063424;28;20080;-79
2021/07/07 09:13:22;;;;;;;3.80;0.88;;;;;;;18.28;88.30;99161.69;5073030;28;20053;-78
2021/07/07 09:15:49;;;;;;;1.98;1.15;;;;;;;18.56;90.78;99147.28;5069165;28;20049;-78
2021/07/07 09:18:20;;;;;;;3.13;1.00;;;;;;;19.01;87.96;99159.63;5053364;28;20080;-78
2021/07/07 09:20:47;;;;;;;2.00;1.08;;;;;;;19.18;82.02;99173.53;5057251;28;20193;-78
2021/07/07 09:23:19;;;;;;;2.85;1.10;;;;;;;19.19;81.62;99190.91;5070127;28;20056;-78
2021/07/07 09:25:48;;;;;;;7.22;1.52;;;;;;;19.20;83.02;99184.31;5071982;28;20048;-79
2021/07/07 09:28:16;;;;;;;7.78;1.40;;;;;;;19.18;86.04;99184.56;5072967;28;20469;-79
2021/07/07 09:30:43;;;;;;;2.42;1.02;;;;;;;19.01;84.77;99187.19;5054461;28;20053;-79
2021/07/07 09:33:11;;;;;;;2.13;1.20;;;;;;;19.19;83.42;99197.25;5067512;28;20052;-78
2021/07/07 09:35:38;;;;;;;4.53;1.15;;;;;;;18.97;82.05;99183.25;5073042;28;20044;-78
2021/07/07 09:38:06;;;;;;;2.72;1.02;;;;;;;19.09;83.72;99202.53;5059430;28;20445;-78
2021/07/07 09:40:39;;;;;;;3.35;1.35;;;;;;;18.98;88.25;99197.84;5052679;28;20547;-78
2021/07/07 09:43:07;;;;;;;2.75;1.20;;;;;;;18.97;85.22;99196.16;5059904;28;20041;-78
2021/07/07 09:45:33;;;;;;;2.67;1.00;;;;;;;18.89;86.77;99191.84;5052702;28;20053;-78
2021/07/07 09:48:01;;;;;;;2.30;1.00;;;;;;;19.12;84.02;99209.47;5062624;28;20105;-78
2021/07/07 09:50:27;;;;;;;2.38;0.90;;;;;;;19.01;78.62;99206.47;5060480;28;20045;-78
2021/07/07 09:52:56;;;;;;;2.28;1.20;;;;;;;19.23;78.67;99203.97;5052505;28;20079;-78
2021/07/07 09:55:23;;;;;;;4.20;0.95;;;;;;;19.21;79.49;99203.38;5062899;28;20403;-78
2021/07/07 09:57:51;;;;;;;7.85;1.65;;;;;;;19.37;79.24;99196.25;5072356;28;20520;-79
2021/07/07 10:00:21;;;;;;;4.05;1.30;;;;;;;19.53;80.23;99200.22;5068632;28;20044;-79
2021/07/07 10:02:48;;;;;;;;;;;;;;;19.65;75.55;99208.47;5059885;28;20492;-78
2021/07/07 10:05:17;;;;;;;10.30;1.48;;;;;;;19.70;77.87;99207.72;5057131;28;19982;-79
2021/07/07 10:07:45;;;;;;;6.57;3.40;;;;;;;19.52;76.51;99201.28;5070938;28;20101;-79
2021/07/07 10:10:14;;;;;;;11.63;1.42;;;;;;;19.64;75.77;99202.09;5058301;28;20092;-79
2021/07/07 10:12:44;;;;;;;6.78;1.20;;;;;;;19.70;78.25;99208.56;5060222;28;20053;-79
2021/07/07 10:15:14;;;;;;;6.82;1.55;;;;;;;19.70;78.70;99211.31;5071044;28;20048;-79
2021/07/07 10:17:42;;;;;;;3.20;1.20;;;;;;;19.66;77.13;99193.59;5067435;28;20049;-79
2021/07/07 10:20:12;;;;;;;6.10;1.20;;;;;;;19.54;71.64;99203.78;5072314;28;20056;-79
2021/07/07 10:22:39;;;;;;;3.42;1.15;;;;;;;19.60;73.06;99202.81;5062860;28;20040;-79
2021/07/07 10:25:08;;;;;;;4.15;1.00;;;;;;;19.53;73.16;99194.69;5051851;28;20111;-79
2021/07/07 10:27:36;;;;;;;5.00;1.40;;;;;;;20.07;72.38;99191.69;5055774;28;20086;-79
2021/07/07 10:30:03;;;;;;;5.97;1.13;;;;;;;20.13;71.67;99196.22;5054805;28;20048;-80
2021/07/07 10:32:35;;;;;;;4.45;0.98;;;;;;;20.32;70.65;99190.47;5071249;28;20049;-79
2021/07/07 10:35:06;;;;;;;5.15;0.85;;;;;;;20.32;71.32;99194.09;5058765;28;20049;-79
2021/07/07 10:37:34;;;;;;;3.38;0.85;;;;;;;20.49;70.59;99199.63;5052114;28;20049;-80
2021/07/07 10:40:25;;;;;;;8.02;1.30;;;;;;;20.68;70.17;99203.03;5054635;28;20040;-80
2021/07/07 10:42:52;;;;;;;2.92;1.13;;;;;;;20.15;71.30;99207.81;5043113;28;20412;-80
2021/07/07 10:45:32;;;;;;;6.00;1.50;;;;;;;20.26;70.37;99186.78;5064667;28;20052;-80
2021/07/07 10:48:25;;;;;;;4.45;0.90;;;;;;;20.58;70.28;99186.25;5051680;28;20086;-80
2021/07/07 10:50:53;;;;;;;2.63;0.98;;;;;;;20.80;69.35;99188.28;5066591;28;20102;-79
2021/07/07 10:53:30;;;;;;;3.55;1.40;;;;;;;20.80;72.33;99191.88;5053106;28;20052;-79
2021/07/07 10:55:59;;;;;;;3.25;1.17;;;;;;;20.97;69.15;99199.31;5054426;28;20052;-80
2021/07/07 10:58:36;;;;;;;4.00;0.98;;;;;;;21.11;67.88;99202.59;5071514;28;20377;-80
2021/07/07 11:01:04;;;;;;;4.07;1.02;;;;;;;20.91;65.30;99215.00;5071590;28;20059;-79
2021/07/07 11:03:36;;;;;;;1.98;1.02;;;;;;;20.92;66.52;99215.81;5069987;28;20052;-79
2021/07/07 11:06:39;;;;;;;4.95;0.98;;;;;;;21.01;70.34;99212.38;5051716;28;20053;-80
2021/07/07 11:09:11;;;;;;;5.15;1.02;;;;;;;20.84;66.04;99187.53;5052197;28;20049;-80
2021/07/07 11:11:39;;;;;;;1.73;0.80;;;;;;;20.93;62.80;99198.16;5051192;28;20085;-79
2021/07/07 11:14:14;;;;;;;3.50;0.82;;;;;;;21.00;61.56;99219.00;5065830;28;20049;-79
2021/07/07 11:16:51;;;;;;;3.47;1.00;;;;;;;20.91;62.30;99206.72;5055617;28;20098;-79
2021/07/07 11:19:39;;;;;;;3.60;1.02;;;;;;;21.22;66.70;99209.94;5060716;28;20049;-79
2021/07/07 11:22:06;;;;;;;4.50;0.98;;;;;;;21.54;64.81;99207.38;5066431;28;20075;-79
2021/07/07 11:24:33;;;;;;;3.97;1.15;;;;;;;21.45;64.12;99208.88;5063502;28;20049;-79
2021/07/07 11:27:02;;;;;;;2.28;0.82;;;;;;;21.59;61.62;99209.38;5064284;28;20439;-79
2021/07/07 11:29:29;;;;;;;2.65;0.82;;;;;;;21.93;67.12;99195.41;5062614;28;20110;-79
2021/07/07 11:31:56;;;;;;;2.38;1.02;;;;;;;21.99;65.24;99197.13;5062306;28;20041;-79
2021/07/07 11:34:23;;;;;;;4.25;1.02;;;;;;;21.73;63.54;99201.53;5075237;28;20044;-79